createdAt,value
2019-03-31T00:01:08.692Z,49.90
2019-03-31T00:06:25.604Z,49.80
2019-03-31T00:11:41.757Z,49.90
2019-03-31T00:17:01.857Z,50.00
2019-03-31T00:22:18.952Z,50.10
2019-03-31T00:27:39.025Z,50.20
2019-03-31T00:32:56.136Z,50.20
2019-03-31T00:38:12.885Z,50.20
2019-03-31T00:43:32.872Z,50.30
2019-03-31T00:48:50.090Z,50.50
2019-03-31T00:54:06.841Z,50.50
2019-03-31T00:59:24.553Z,50.50
2019-03-31T01:04:41.851Z,50.60
2019-03-31T01:10:02.535Z,50.70
2019-03-31T01:15:28.102Z,50.70
2019-03-31T01:20:45.246Z,50.90
2019-03-31T01:26:03.972Z,51.00
2019-03-31T01:31:20.651Z,51.00
2019-03-31T01:36:37.410Z,51.10
2019-03-31T01:41:54.055Z,51.10
2019-03-31T01:47:10.436Z,51.20
2019-03-31T01:52:27.096Z,51.30
2019-03-31T01:57:43.581Z,51.40
2019-03-31T02:03:00.128Z,51.50
2019-03-31T02:08:17.907Z,51.50
2019-03-31T02:13:34.632Z,51.60
2019-03-31T02:18:51.237Z,51.60
2019-03-31T02:24:08.124Z,51.70
2019-03-31T02:29:25.250Z,51.80
2019-03-31T02:34:41.756Z,51.80
2019-03-31T02:39:58.037Z,51.80
2019-03-31T02:45:15.327Z,51.90
2019-03-31T02:50:52.107Z,51.90
2019-03-31T02:56:09.011Z,52.10
2019-03-31T03:01:26.182Z,52.10
2019-03-31T03:06:44.155Z,52.10
2019-03-31T03:12:02.133Z,52.20
2019-03-31T03:17:19.075Z,52.20
2019-03-31T03:22:35.633Z,52.20
2019-03-31T03:27:52.019Z,52.20
2019-03-31T03:33:16.644Z,52.40
2019-03-31T03:38:27.260Z,52.40
2019-03-31T03:43:55.185Z,52.40
2019-03-31T03:49:02.397Z,52.50
2019-03-31T03:54:19.030Z,52.60
2019-03-31T03:59:35.801Z,52.50
2019-03-31T04:04:52.402Z,52.50
2019-03-31T04:10:31.159Z,52.60
2019-03-31T04:15:47.925Z,52.70
2019-03-31T04:21:04.496Z,52.80
2019-03-31T04:26:20.973Z,52.80
2019-03-31T04:31:37.305Z,52.80
2019-03-31T04:36:53.561Z,52.90
2019-03-31T04:42:10.003Z,52.90
2019-03-31T04:47:26.718Z,52.90
2019-03-31T04:52:43.470Z,53.00
2019-03-31T04:58:00.315Z,53.00
2019-03-31T05:03:16.983Z,53.00
2019-03-31T05:08:33.400Z,53.00
2019-03-31T05:13:49.794Z,53.00
2019-03-31T05:19:06.557Z,53.10
2019-03-31T05:24:23.453Z,53.10
2019-03-31T05:29:39.898Z,53.10
2019-03-31T05:34:56.203Z,53.20
2019-03-31T05:40:13.085Z,53.20
2019-03-31T05:45:29.829Z,53.30
2019-03-31T05:50:45.968Z,53.30
2019-03-31T05:56:02.446Z,53.50
2019-03-31T06:01:20.358Z,53.60
2019-03-31T06:06:37.290Z,53.60
2019-03-31T06:11:54.154Z,53.60
2019-03-31T06:17:11.652Z,53.60
2019-03-31T06:22:28.086Z,53.60
2019-03-31T06:27:44.334Z,53.80
2019-03-31T06:33:00.419Z,54.20
2019-03-31T06:38:17.321Z,53.90
2019-03-31T06:43:33.550Z,54.20
2019-03-31T06:48:49.996Z,54.20
2019-03-31T06:54:08.154Z,54.40
2019-03-31T06:59:25.090Z,54.50
2019-03-31T07:04:41.621Z,54.70
2019-03-31T07:09:58.307Z,54.80
2019-03-31T07:15:15.238Z,55.00
2019-03-31T07:20:31.798Z,55.20
2019-03-31T07:25:48.346Z,55.40
2019-03-31T07:31:04.924Z,55.60
2019-03-31T07:36:21.406Z,55.80
2019-03-31T07:41:38.076Z,56.00
2019-03-31T07:46:54.843Z,56.00
2019-03-31T07:52:11.516Z,56.20
2019-03-31T07:57:28.442Z,56.30
2019-03-31T08:02:45.255Z,56.50
2019-03-31T08:08:01.832Z,56.80
2019-03-31T08:13:18.654Z,56.90
2019-03-31T08:18:35.320Z,56.90
2019-03-31T08:23:51.677Z,56.90
2019-03-31T08:29:08.338Z,57.10
2019-03-31T08:34:25.002Z,57.10
2019-03-31T08:39:42.195Z,57.10
2019-03-31T08:44:58.902Z,57.30
2019-03-31T08:50:15.575Z,57.60
2019-03-31T08:55:32.202Z,57.90
2019-03-31T09:00:53.795Z,58.10
2019-03-31T09:06:10.638Z,58.30
2019-03-31T09:11:27.555Z,58.50
2019-03-31T09:16:45.734Z,58.70
2019-03-31T09:22:04.522Z,58.90
2019-03-31T09:27:21.105Z,59.10
2019-03-31T09:32:37.819Z,59.10
2019-03-31T09:37:54.643Z,59.20
2019-03-31T09:43:11.504Z,59.30
2019-03-31T09:48:27.870Z,59.20
2019-03-31T09:53:44.581Z,59.20
2019-03-31T09:59:00.885Z,59.20
2019-03-31T10:04:17.379Z,59.30
2019-03-31T10:09:34.657Z,59.30
2019-03-31T10:14:54.120Z,59.20
2019-03-31T10:20:09.718Z,59.10
2019-03-31T10:25:26.613Z,59.20
2019-03-31T10:30:43.417Z,59.10
2019-03-31T10:36:00.350Z,59.00
2019-03-31T10:41:16.696Z,59.10
2019-03-31T10:46:34.731Z,58.80
2019-03-31T10:51:51.393Z,58.80
2019-03-31T10:57:08.212Z,58.60
2019-03-31T11:02:24.601Z,58.40
2019-03-31T11:07:41.047Z,58.10
2019-03-31T11:12:57.887Z,57.90
2019-03-31T11:18:15.317Z,57.20
2019-03-31T11:23:32.337Z,57.10
2019-03-31T11:28:48.958Z,56.70
2019-03-31T11:34:05.713Z,56.60
2019-03-31T11:39:22.233Z,56.40
2019-03-31T11:44:38.831Z,56.30
2019-03-31T11:49:55.105Z,56.20
2019-03-31T11:55:26.335Z,55.90
2019-03-31T12:00:48.562Z,56.00
2019-03-31T12:06:05.558Z,55.60
2019-03-31T12:11:22.185Z,55.40
2019-03-31T12:16:38.787Z,55.00
2019-03-31T12:21:55.550Z,55.00
2019-03-31T12:27:12.140Z,55.00
2019-03-31T12:32:28.618Z,54.70
2019-03-31T12:37:45.439Z,54.70
2019-03-31T12:43:04.921Z,54.60
2019-03-31T12:48:23.257Z,54.20
2019-03-31T12:53:40.026Z,53.90
2019-03-31T12:58:56.834Z,53.80
2019-03-31T13:04:13.448Z,53.40
2019-03-31T13:09:30.466Z,53.10
2019-03-31T13:14:48.817Z,52.30
2019-03-31T13:20:06.071Z,51.70
2019-03-31T13:25:22.776Z,51.60
2019-03-31T13:30:39.568Z,51.80
2019-03-31T13:35:56.630Z,51.50
2019-03-31T13:41:13.588Z,51.40
2019-03-31T13:46:30.446Z,51.50
2019-03-31T13:51:48.178Z,51.20
2019-03-31T13:57:22.886Z,51.10
2019-03-31T14:02:40.092Z,50.90
2019-03-31T14:07:56.671Z,49.90
2019-03-31T14:13:21.381Z,49.70
2019-03-31T14:19:58.416Z,49.40
2019-03-31T14:26:08.477Z,49.50
2019-03-31T14:32:47.975Z,49.70
2019-03-31T14:38:53.653Z,49.70
2019-03-31T14:43:41.510Z,50.00
2019-03-31T14:48:58.587Z,50.40
2019-03-31T14:54:17.624Z,50.30
2019-03-31T14:59:34.677Z,50.30
2019-03-31T15:04:51.188Z,50.10
2019-03-31T15:10:07.758Z,50.00
2019-03-31T15:15:27.454Z,50.00
2019-03-31T15:20:43.936Z,49.90
2019-03-31T15:26:00.605Z,49.80
2019-03-31T15:31:17.399Z,49.50
2019-03-31T15:36:34.005Z,49.20
2019-03-31T15:41:50.804Z,49.10
2019-03-31T15:47:07.824Z,48.60
2019-03-31T15:52:25.995Z,48.40
2019-03-31T15:57:42.777Z,48.60
2019-03-31T16:02:59.246Z,48.30
2019-03-31T16:08:15.094Z,48.30
2019-03-31T16:13:31.195Z,48.00
2019-03-31T16:18:47.038Z,48.00
2019-03-31T16:24:02.809Z,48.00
2019-03-31T16:29:18.340Z,48.00
2019-03-31T16:34:34.358Z,47.90
2019-03-31T16:39:50.439Z,47.80
2019-03-31T16:45:07.340Z,47.70
2019-03-31T16:50:23.262Z,47.50
2019-03-31T16:55:38.982Z,47.40
2019-03-31T17:00:54.869Z,47.80
2019-03-31T17:06:11.273Z,47.10
2019-03-31T17:11:29.477Z,47.10
2019-03-31T17:16:45.295Z,47.10
2019-03-31T17:22:01.129Z,47.10
2019-03-31T17:27:16.984Z,47.10
2019-03-31T17:32:32.813Z,47.30
2019-03-31T17:37:48.115Z,47.50
2019-03-31T17:43:05.627Z,47.80
2019-03-31T17:48:21.580Z,48.10
2019-03-31T17:53:37.168Z,48.40
2019-03-31T17:58:52.768Z,48.50
2019-03-31T18:04:08.664Z,48.60
2019-03-31T18:09:24.661Z,48.70
2019-03-31T18:14:40.675Z,48.70
2019-03-31T18:19:57.016Z,48.60
2019-03-31T18:25:12.810Z,48.60
2019-03-31T18:30:28.762Z,48.70
2019-03-31T18:35:44.473Z,48.70
2019-03-31T18:41:03.530Z,48.80
2019-03-31T18:46:18.213Z,48.80
2019-03-31T18:51:34.235Z,48.80
2019-03-31T18:57:07.644Z,48.80
2019-03-31T19:02:41.260Z,48.80
2019-03-31T19:08:21.977Z,48.80
2019-03-31T19:14:02.697Z,48.80
2019-03-31T19:19:31.504Z,48.70
2019-03-31T19:25:14.146Z,48.60
2019-03-31T19:30:52.134Z,48.60
2019-03-31T19:36:39.572Z,48.60
2019-03-31T19:42:25.853Z,48.20
2019-03-31T19:48:15.851Z,48.40
2019-03-31T19:54:17.996Z,48.50
2019-03-31T19:59:52.447Z,48.40
2019-03-31T20:05:26.028Z,48.40
2019-03-31T20:11:00.867Z,48.40
2019-03-31T20:16:40.827Z,48.30
2019-03-31T20:22:15.917Z,48.30
2019-03-31T20:27:44.247Z,48.40
2019-03-31T20:33:36.944Z,48.60
2019-03-31T20:39:30.035Z,48.30
2019-03-31T20:44:48.622Z,47.50
2019-03-31T20:50:05.628Z,46.90
2019-03-31T20:55:21.134Z,47.60
2019-03-31T21:00:37.174Z,48.00
2019-03-31T21:05:52.955Z,48.10
2019-03-31T21:11:09.202Z,48.10
2019-03-31T21:16:25.038Z,47.80
2019-03-31T21:21:57.609Z,47.50
2019-03-31T21:27:19.222Z,47.30
2019-03-31T21:32:36.609Z,47.00
2019-03-31T21:37:57.358Z,46.70
2019-03-31T21:43:18.350Z,46.50
2019-03-31T21:48:33.981Z,46.30
2019-03-31T21:53:56.101Z,46.20
2019-03-31T21:59:14.492Z,46.10
2019-03-31T22:04:30.687Z,46.10
2019-03-31T22:09:46.878Z,46.10
2019-03-31T22:15:02.632Z,46.00
2019-03-31T22:20:18.498Z,46.00
2019-03-31T22:25:34.264Z,46.00
2019-03-31T22:30:49.880Z,46.10
2019-03-31T22:36:25.159Z,46.10
2019-03-31T22:41:40.752Z,46.20
2019-03-31T22:46:56.463Z,46.20
2019-03-31T22:52:12.222Z,46.30
2019-03-31T22:57:27.754Z,46.40
2019-03-31T23:02:43.623Z,46.50
2019-03-31T23:07:59.522Z,46.50
2019-03-31T23:13:15.426Z,46.60
2019-03-31T23:18:31.167Z,46.60
2019-03-31T23:23:46.788Z,46.70
2019-03-31T23:29:02.489Z,46.90
2019-03-31T23:34:18.391Z,46.90
2019-03-31T23:39:34.436Z,47.00
2019-03-31T23:44:50.182Z,47.10
2019-03-31T23:50:05.934Z,47.10
2019-03-31T23:55:21.595Z,47.20
